Time;durP1;ratioP1;P1;durP2;ratioP2;P2;SDS_P1;SDS_P2;PMS_P1;PMS_P2;Temp;Humidity;BMP_temperature;BMP_pressure;BME280_temperature;BME280_humidity;BME280_pressure;Samples;Min_cycle;Max_cycle;Signal;HPM_P1;HPM_P2
2022/12/12 00:00:44;;;;;;;45.30;18.33;;;-3.80;99.90;;;;;;4412176;28;660742;-68
2022/12/12 00:03:31;;;;;;;35.43;14.20;;;-3.80;99.90;;;;;;4390392;28;659713;-68
2022/12/12 00:06:18;;;;;;;50.65;18.30;;;-3.80;99.90;;;;;;4413903;28;660453;-68
2022/12/12 00:09:08;;;;;;;45.77;17.17;;;-3.90;99.90;;;;;;4390613;28;659835;-68
2022/12/12 00:11:55;;;;;;;41.23;16.20;;;-3.80;99.90;;;;;;4392694;28;659852;-68
2022/12/12 00:14:42;;;;;;;46.70;18.52;;;-3.80;99.90;;;;;;4410747;28;660762;-68
2022/12/12 00:17:29;;;;;;;50.53;21.17;;;-3.80;99.90;;;;;;4407600;28;659886;-68
2022/12/12 00:20:17;;;;;;;52.23;19.97;;;-3.70;99.90;;;;;;4392569;28;660306;-67
2022/12/12 00:23:04;;;;;;;56.53;21.50;;;-3.70;99.90;;;;;;4405277;28;659224;-68
2022/12/12 00:25:56;;;;;;;48.38;19.17;;;-3.70;99.90;;;;;;4382525;28;659697;-67
2022/12/12 00:28:44;;;;;;;43.70;15.20;;;-3.70;99.90;;;;;;4382988;28;659709;-67
2022/12/12 00:31:31;;;;;;;45.00;17.50;;;-3.70;99.90;;;;;;4391825;28;659269;-67
2022/12/12 00:34:18;;;;;;;50.03;20.63;;;-3.70;99.90;;;;;;4413059;28;660395;-68
2022/12/12 00:37:05;;;;;;;63.80;21.67;;;-3.70;99.90;;;;;;4387700;28;659753;-68
2022/12/12 00:39:52;;;;;;;46.63;17.40;;;-3.70;99.90;;;;;;4413849;28;659737;-67
2022/12/12 00:42:41;;;;;;;53.50;18.30;;;-3.80;99.90;;;;;;4408542;28;659636;-68
2022/12/12 00:45:28;;;;;;;52.23;20.00;;;-3.80;99.90;;;;;;4388043;28;661280;-69
2022/12/12 00:48:15;;;;;;;49.27;18.17;;;-3.70;99.90;;;;;;4390460;28;659532;-67
2022/12/12 00:51:06;;;;;;;53.60;18.73;;;-3.70;99.90;;;;;;4413651;28;659573;-68
2022/12/12 00:53:53;;;;;;;57.00;20.13;;;-3.70;99.90;;;;;;4382983;28;660119;-68
2022/12/12 00:56:40;;;;;;;43.73;17.40;;;-3.70;99.90;;;;;;4392367;28;660751;-67
2022/12/12 00:59:29;;;;;;;47.25;17.55;;;-3.60;99.90;;;;;;4413809;28;660175;-68
2022/12/12 01:02:16;;;;;;;40.87;16.03;;;-3.60;99.90;;;;;;4846264;28;659865;-69
2022/12/12 01:05:03;;;;;;;55.33;18.73;;;-3.70;99.90;;;;;;4408667;28;660878;-67
2022/12/12 01:07:50;;;;;;;42.30;15.33;;;-3.70;99.90;;;;;;4386795;28;659758;-67
2022/12/12 01:10:37;;;;;;;44.77;15.37;;;-3.70;99.90;;;;;;4416433;28;659889;-68
2022/12/12 01:13:25;;;;;;;47.27;17.83;;;-3.70;99.90;;;;;;4411923;28;659861;-68
2022/12/12 01:16:14;;;;;;;45.77;16.33;;;-3.60;99.90;;;;;;4413643;28;659644;-68
2022/12/12 01:19:01;;;;;;;46.67;16.73;;;-3.70;99.90;;;;;;4388880;28;659813;-68
2022/12/12 01:21:48;;;;;;;43.53;15.53;;;-3.70;99.90;;;;;;4406408;28;660609;-68
2022/12/12 01:24:35;;;;;;;46.28;17.60;;;-3.70;99.90;;;;;;4387902;28;659514;-68
2022/12/12 01:27:22;;;;;;;47.03;17.53;;;-3.70;99.90;;;;;;4411627;28;660232;-68
2022/12/12 01:30:11;;;;;;;45.53;16.93;;;-3.70;99.90;;;;;;4407931;28;659735;-69
2022/12/12 01:33:00;;;;;;;40.43;14.33;;;-3.70;99.90;;;;;;4382680;28;660216;-68
2022/12/12 01:35:47;;;;;;;44.30;17.27;;;-3.70;99.90;;;;;;4381979;28;660457;-68
2022/12/12 01:38:34;;;;;;;42.45;16.35;;;-3.70;99.90;;;;;;4409991;28;659296;-67
2022/12/12 01:41:22;;;;;;;45.73;17.00;;;-3.70;99.90;;;;;;4383538;28;659604;-67
2022/12/12 01:44:38;;;;;;;44.83;16.40;;;-3.60;99.90;;;;;;4395181;28;659895;-68
2022/12/12 01:47:26;;;;;;;55.80;19.23;;;-3.60;99.90;;;;;;4350536;28;659925;-68
2022/12/12 01:50:14;;;;;;;43.53;16.40;;;-3.60;99.90;;;;;;4394325;28;660577;-68
2022/12/12 01:53:02;;;;;;;48.90;18.00;;;-3.70;99.90;;;;;;4369216;28;660074;-67
2022/12/12 01:55:49;;;;;;;59.57;20.70;;;-3.60;99.90;;;;;;4393485;28;659450;-68
2022/12/12 01:58:36;;;;;;;46.63;16.63;;;-3.60;99.90;;;;;;4379128;28;659612;-68
2022/12/12 02:01:23;;;;;;;54.03;19.70;;;-3.60;99.90;;;;;;4396193;28;660340;-67
2022/12/12 02:04:10;;;;;;;48.03;15.93;;;-3.60;99.90;;;;;;4376405;28;659599;-67
2022/12/12 02:06:59;;;;;;;44.73;16.87;;;-3.70;99.90;;;;;;4392181;28;660746;-68
2022/12/12 02:09:46;;;;;;;42.90;15.07;;;-3.60;99.90;;;;;;4373794;28;659759;-68
2022/12/12 02:12:33;;;;;;;44.87;17.87;;;-3.70;99.90;;;;;;4396978;28;660341;-68
2022/12/12 02:15:20;;;;;;;41.03;13.70;;;-3.80;99.90;;;;;;4371571;28;659879;-68
2022/12/12 02:18:08;;;;;;;36.70;13.93;;;-3.80;99.90;;;;;;4391441;28;660891;-68
2022/12/12 02:21:04;;;;;;;47.63;15.83;;;-3.80;99.90;;;;;;4382701;28;659685;-68
2022/12/12 02:24:20;;;;;;;41.65;16.10;;;-3.80;99.90;;;;;;4351048;28;660954;-68
2022/12/12 02:27:27;;;;;;;45.07;15.43;;;-3.80;99.90;;;;;;4349465;28;659937;-68
2022/12/12 02:30:18;;;;;;;34.87;13.73;;;-3.90;99.90;;;;;;4368815;28;659901;-68
2022/12/12 02:33:14;;;;;;;25.10;10.10;;;-3.80;99.90;;;;;;4348612;28;659691;-68
2022/12/12 02:36:06;;;;;;;39.27;14.50;;;-3.90;99.90;;;;;;4377223;28;659584;-67
2022/12/12 02:38:55;;;;;;;51.90;19.93;;;-3.90;99.90;;;;;;4372092;28;660755;-68
2022/12/12 02:41:43;;;;;;;29.60;11.27;;;-3.80;99.90;;;;;;4373645;28;660635;-68
2022/12/12 02:44:32;;;;;;;44.57;16.10;;;-3.80;99.90;;;;;;4395033;28;662041;-67
2022/12/12 02:47:22;;;;;;;44.10;17.33;;;-3.90;99.90;;;;;;4405420;28;659472;-68
2022/12/12 02:50:12;;;;;;;30.17;10.77;;;-3.90;99.90;;;;;;4408757;28;659625;-68
2022/12/12 02:52:59;;;;;;;24.07;9.67;;;-3.90;99.90;;;;;;4383128;28;659442;-69
2022/12/12 02:55:48;;;;;;;37.20;13.43;;;-3.80;99.90;;;;;;4387305;28;660001;-68
2022/12/12 02:58:37;;;;;;;31.23;12.07;;;-3.90;99.90;;;;;;4388450;28;659954;-68
2022/12/12 03:01:30;;;;;;;32.97;12.50;;;-4.00;99.90;;;;;;4693995;28;660070;-68
2022/12/12 03:10:41;;;;;;;43.97;16.90;;;-3.90;99.90;;;;;;4392220;28;660000;-68
2022/12/12 03:13:32;;;;;;;34.43;14.43;;;-3.90;99.90;;;;;;4382176;28;661040;-68
2022/12/12 03:16:24;;;;;;;43.97;15.57;;;-3.90;99.90;;;;;;4385680;28;659815;-68
2022/12/12 03:19:12;;;;;;;32.60;11.70;;;-3.90;99.90;;;;;;4358693;28;660227;-68
2022/12/12 03:22:00;;;;;;;42.03;15.57;;;-3.80;99.90;;;;;;4406116;28;659351;-68
2022/12/12 03:24:51;;;;;;;29.13;9.33;;;-3.90;99.90;;;;;;4384074;28;661342;-68
2022/12/12 03:27:39;;;;;;;42.30;16.67;;;-3.90;99.90;;;;;;4391127;28;659455;-69
2022/12/12 03:30:26;;;;;;;45.17;16.00;;;-3.90;99.90;;;;;;4390208;28;659614;-68
2022/12/12 03:33:16;;;;;;;47.37;17.07;;;-3.90;99.90;;;;;;4414425;28;660652;-68
2022/12/12 03:36:05;;;;;;;24.03;8.80;;;-3.80;99.90;;;;;;4386230;28;660263;-68
2022/12/12 03:38:56;;;;;;;32.23;12.30;;;-3.80;99.90;;;;;;4387365;28;659719;-69
2022/12/12 03:41:54;;;;;;;37.07;13.83;;;-3.80;99.90;;;;;;4381134;28;660959;-68
2022/12/12 03:44:43;;;;;;;42.47;15.80;;;-3.90;99.90;;;;;;4393913;28;659681;-68
2022/12/12 03:47:32;;;;;;;36.83;13.55;;;-3.90;99.90;;;;;;4389946;28;660127;-68
2022/12/12 03:50:20;;;;;;;18.87;8.10;;;-3.90;99.90;;;;;;4406763;28;659808;-67
2022/12/12 03:53:09;;;;;;;35.27;14.03;;;-3.90;99.90;;;;;;4386761;28;660091;-67
2022/12/12 03:55:57;;;;;;;35.93;14.30;;;-3.90;99.90;;;;;;4384036;28;659546;-67
2022/12/12 03:58:47;;;;;;;39.53;14.37;;;-3.80;99.90;;;;;;4408940;28;659758;-68
2022/12/12 04:01:37;;;;;;;18.57;6.43;;;-3.90;99.90;;;;;;4385170;28;659563;-68
2022/12/12 04:04:27;;;;;;;31.50;12.87;;;-3.90;99.90;;;;;;4392742;28;658655;-68
2022/12/12 04:07:16;;;;;;;24.40;10.73;;;-3.90;99.90;;;;;;4386694;28;659680;-68
2022/12/12 04:13:11;;;;;;;33.23;11.93;;;-3.90;99.90;;;;;;4385219;28;660797;-68
2022/12/12 04:16:01;;;;;;;30.57;12.30;;;-3.90;99.90;;;;;;4389027;28;660505;-68
2022/12/12 04:18:51;;;;;;;40.40;15.32;;;-3.90;99.90;;;;;;4385207;28;659880;-68
2022/12/12 04:24:45;;;;;;;37.10;14.53;;;-3.80;99.90;;;;;;4383924;28;659289;-68
2022/12/12 04:27:35;;;;;;;30.43;10.87;;;-3.90;99.90;;;;;;4387813;28;661276;-67
2022/12/12 04:30:23;;;;;;;37.43;14.27;;;-3.90;99.90;;;;;;4386029;28;661167;-68
2022/12/12 04:33:13;;;;;;;38.20;15.03;;;-3.90;99.90;;;;;;4398587;28;660032;-68
2022/12/12 04:36:00;;;;;;;44.58;16.23;;;-3.90;99.90;;;;;;4393927;28;659472;-68
2022/12/12 04:38:47;;;;;;;40.57;14.33;;;-3.90;99.90;;;;;;4417269;28;659750;-68
2022/12/12 04:41:35;;;;;;;30.37;12.57;;;-3.80;99.90;;;;;;4415186;28;659649;-69
2022/12/12 04:44:22;;;;;;;38.90;15.13;;;-3.80;99.90;;;;;;4393619;28;660943;-68
2022/12/12 04:47:09;;;;;;;33.70;13.47;;;-3.80;99.90;;;;;;4406456;28;660014;-68
2022/12/12 04:49:58;;;;;;;39.07;15.03;;;-3.90;99.90;;;;;;4384046;28;660430;-67
2022/12/12 04:52:45;;;;;;;41.67;15.10;;;-3.90;99.90;;;;;;4396770;28;660535;-68
2022/12/12 04:55:34;;;;;;;42.63;15.73;;;-3.90;99.90;;;;;;4413302;28;659652;-68
2022/12/12 04:58:21;;;;;;;31.43;12.87;;;-3.90;99.90;;;;;;4395000;28;660135;-68
2022/12/12 05:01:09;;;;;;;37.93;15.30;;;-3.80;99.90;;;;;;4642793;28;660821;-68
2022/12/12 05:03:57;;;;;;;32.90;12.47;;;-3.90;99.90;;;;;;4640460;28;536779;-68
2022/12/12 05:06:48;;;;;;;39.37;14.20;;;-3.90;99.90;;;;;;4406849;28;659785;-68
2022/12/12 05:09:35;;;;;;;43.17;15.80;;;-3.90;99.90;;;;;;4378095;28;659929;-68
2022/12/12 05:12:22;;;;;;;39.90;16.83;;;-3.90;99.90;;;;;;4411437;28;660657;-69
2022/12/12 05:15:10;;;;;;;42.17;14.17;;;-3.90;99.90;;;;;;4408738;28;659681;-68
2022/12/12 05:17:59;;;;;;;43.50;14.67;;;-3.90;99.90;;;;;;4412741;28;660995;-68
2022/12/12 05:20:46;;;;;;;43.80;15.83;;;-3.90;99.90;;;;;;4393710;28;659736;-67
2022/12/12 05:23:34;;;;;;;32.50;13.00;;;-3.90;99.90;;;;;;4409165;28;659853;-68
2022/12/12 05:26:23;;;;;;;42.73;16.40;;;-4.00;99.90;;;;;;4397515;28;659725;-68
2022/12/12 05:29:10;;;;;;;33.67;13.10;;;-4.00;99.90;;;;;;4402187;28;659716;-68
2022/12/12 05:31:57;;;;;;;40.30;16.67;;;-3.90;99.90;;;;;;4409086;28;660868;-68
2022/12/12 05:34:45;;;;;;;46.07;17.77;;;-4.00;99.90;;;;;;4408374;28;659620;-68
2022/12/12 05:37:32;;;;;;;39.70;15.57;;;-4.00;99.90;;;;;;4413074;28;661011;-67
2022/12/12 05:40:21;;;;;;;38.63;14.73;;;-3.90;99.90;;;;;;4407148;28;659544;-69
2022/12/12 05:43:08;;;;;;;46.03;15.33;;;-4.00;99.90;;;;;;4383663;28;659919;-68
2022/12/12 05:45:55;;;;;;;36.87;15.27;;;-3.90;99.90;;;;;;4373754;28;659646;-68
2022/12/12 05:48:43;;;;;;;47.97;18.90;;;-3.90;99.90;;;;;;4399091;28;660195;-68
2022/12/12 05:51:30;;;;;;;42.43;16.90;;;-3.90;99.90;;;;;;4375581;28;660505;-68
2022/12/12 05:54:17;;;;;;;45.90;18.40;;;-3.90;99.90;;;;;;4395917;28;659835;-68
2022/12/12 05:57:06;;;;;;;34.47;13.83;;;-3.90;99.90;;;;;;4387793;28;659540;-68
2022/12/12 05:59:53;;;;;;;42.80;16.30;;;-3.90;99.90;;;;;;4369443;28;659971;-68
2022/12/12 06:02:40;;;;;;;176.90;20.75;;;-3.90;99.90;;;;;;4379498;28;659812;-68
2022/12/12 06:05:27;;;;;;;45.10;16.93;;;-3.80;99.90;;;;;;4396690;28;660536;-69
2022/12/12 06:08:14;;;;;;;44.80;15.90;;;-3.80;99.90;;;;;;4388424;28;659771;-68
2022/12/12 06:11:05;;;;;;;47.13;18.13;;;-3.80;99.90;;;;;;4376319;28;659437;-69
2022/12/12 06:13:53;;;;;;;47.03;18.67;;;-3.90;99.90;;;;;;4369021;28;660292;-68
2022/12/12 06:16:40;;;;;;;46.33;18.90;;;-3.80;99.90;;;;;;4378445;28;659835;-68
2022/12/12 06:19:28;;;;;;;42.77;17.33;;;-3.80;99.90;;;;;;4393775;28;660393;-68
2022/12/12 06:22:15;;;;;;;48.47;17.50;;;-3.80;99.90;;;;;;4380613;28;661611;-68
2022/12/12 06:25:02;;;;;;;49.50;18.97;;;-3.70;99.90;;;;;;4401268;28;659410;-69
2022/12/12 06:27:49;;;;;;;45.30;18.20;;;-3.80;99.90;;;;;;4388360;28;659578;-68
2022/12/12 06:30:38;;;;;;;44.40;16.50;;;-3.70;99.90;;;;;;4373597;28;660533;-68
2022/12/12 06:33:26;;;;;;;49.50;18.00;;;-3.70;99.90;;;;;;4369926;28;659747;-68
2022/12/12 06:36:15;;;;;;;49.43;17.90;;;-3.80;99.90;;;;;;4392541;28;660457;-68
2022/12/12 06:39:02;;;;;;;48.05;18.15;;;-3.70;99.90;;;;;;4376690;28;661839;-68
2022/12/12 06:41:49;;;;;;;42.40;17.37;;;-3.70;99.90;;;;;;4391775;28;659426;-68
2022/12/12 06:44:36;;;;;;;49.87;17.60;;;-3.70;99.90;;;;;;4389064;28;660652;-67
2022/12/12 06:47:25;;;;;;;40.47;16.03;;;-3.60;99.90;;;;;;4410290;28;660133;-68
2022/12/12 06:50:12;;;;;;;44.03;17.75;;;-3.70;99.90;;;;;;4391939;28;660471;-68
2022/12/12 06:52:59;;;;;;;28.30;10.97;;;-3.70;99.90;;;;;;4410550;28;660327;-67
2022/12/12 06:55:46;;;;;;;39.93;15.87;;;-3.70;99.90;;;;;;4390311;28;661087;-67
2022/12/12 06:58:34;;;;;;;38.23;15.80;;;-3.70;99.90;;;;;;4409798;28;659978;-68
2022/12/12 07:01:22;;;;;;;46.13;18.67;;;-3.70;99.90;;;;;;4672359;28;660035;-68
2022/12/12 07:04:11;;;;;;;45.00;17.63;;;-3.70;99.90;;;;;;4599020;28;536282;-68
2022/12/12 07:06:58;;;;;;;41.67;15.37;;;-3.70;99.90;;;;;;4388806;28;660459;-69
2022/12/12 07:09:45;;;;;;;32.53;13.20;;;-3.60;99.90;;;;;;4393983;28;659671;-67
2022/12/12 07:12:33;;;;;;;38.03;15.70;;;-3.60;99.90;;;;;;4415631;28;660341;-68
2022/12/12 07:15:20;;;;;;;34.63;14.03;;;-3.50;99.90;;;;;;4397665;28;659634;-68
2022/12/12 07:18:07;;;;;;;42.97;17.02;;;-3.50;99.90;;;;;;4414505;28;660616;-68
2022/12/12 07:20:56;;;;;;;48.80;18.43;;;-3.50;99.90;;;;;;4408881;28;659853;-68
2022/12/12 07:23:43;;;;;;;49.63;17.67;;;-3.50;99.90;;;;;;4394113;28;661063;-68
2022/12/12 07:26:30;;;;;;;47.97;18.40;;;-3.40;99.90;;;;;;4390110;28;659871;-67
2022/12/12 07:29:17;;;;;;;52.80;19.43;;;-3.40;99.90;;;;;;4410403;28;659624;-66
2022/12/12 07:32:05;;;;;;;43.40;17.13;;;-3.40;99.90;;;;;;4406398;28;661060;-67
2022/12/12 07:34:52;;;;;;;47.00;18.77;;;-3.50;99.90;;;;;;4388417;28;661023;-66
2022/12/12 07:37:41;;;;;;;50.13;18.08;;;-3.50;99.90;;;;;;4413208;28;660091;-65
2022/12/12 07:40:28;;;;;;;34.23;13.10;;;-3.40;99.90;;;;;;4392085;28;660998;-66
2022/12/12 07:43:15;;;;;;;45.78;18.38;;;-3.30;99.90;;;;;;4397634;28;659477;-67
2022/12/12 07:46:02;;;;;;;50.10;19.03;;;-3.30;99.90;;;;;;4419120;28;659942;-66
2022/12/12 07:48:50;;;;;;;45.40;17.73;;;-3.30;99.90;;;;;;4406287;28;659747;-66
2022/12/12 07:51:37;;;;;;;48.67;19.07;;;-3.20;99.90;;;;;;4391327;28;660570;-66
2022/12/12 07:54:26;;;;;;;47.27;19.30;;;-3.30;99.90;;;;;;4413601;28;659784;-66
2022/12/12 07:57:13;;;;;;;86.93;18.33;;;-3.20;99.90;;;;;;4387571;28;661267;-66
2022/12/12 08:00:00;;;;;;;42.20;15.53;;;-3.20;99.90;;;;;;4390648;28;659574;-67
2022/12/12 08:02:48;;;;;;;40.63;15.83;;;-3.10;99.90;;;;;;4408493;28;660315;-66
2022/12/12 08:05:35;;;;;;;44.10;16.37;;;-3.00;99.90;;;;;;4396701;28;659876;-66
2022/12/12 08:08:22;;;;;;;40.97;16.20;;;-3.00;99.90;;;;;;4412859;28;660792;-66
2022/12/12 08:11:12;;;;;;;43.37;17.10;;;-3.00;99.90;;;;;;4406015;28;659481;-66
2022/12/12 08:13:59;;;;;;;35.47;14.93;;;-3.10;99.90;;;;;;4388295;28;660529;-66
2022/12/12 08:16:46;;;;;;;38.03;16.02;;;-3.00;99.90;;;;;;4397093;28;659526;-66
2022/12/12 08:19:33;;;;;;;41.93;17.90;;;-3.00;99.90;;;;;;4414523;28;660550;-66
2022/12/12 08:22:20;;;;;;;40.43;17.00;;;-2.90;99.90;;;;;;4389236;28;660161;-67
2022/12/12 08:25:08;;;;;;;44.40;18.37;;;-2.80;99.90;;;;;;4407186;28;660706;-67
2022/12/12 08:27:57;;;;;;;45.03;19.17;;;-2.90;99.90;;;;;;4386960;28;660042;-67
2022/12/12 08:30:48;;;;;;;55.00;18.80;;;-2.90;99.90;;;;;;4412291;28;659625;-66
2022/12/12 08:33:36;;;;;;;45.33;18.80;;;-2.80;99.90;;;;;;4368749;28;659484;-66
2022/12/12 08:36:23;;;;;;;36.57;14.73;;;-2.80;99.90;;;;;;4413228;28;660693;-67
2022/12/12 08:39:12;;;;;;;38.07;12.33;;;-2.90;99.90;;;;;;4387653;28;659721;-67
2022/12/12 08:41:59;;;;;;;51.93;19.37;;;-2.80;99.90;;;;;;4407778;28;659204;-66
2022/12/12 08:44:48;;;;;;;46.93;18.23;;;-2.80;99.90;;;;;;4387988;28;659975;-66
2022/12/12 08:47:35;;;;;;;45.20;19.17;;;-2.80;99.90;;;;;;4386860;28;659694;-66
2022/12/12 08:50:23;;;;;;;52.00;21.10;;;-2.80;99.90;;;;;;4405075;28;660909;-67
2022/12/12 08:53:10;;;;;;;45.70;18.83;;;-2.80;99.90;;;;;;4399256;28;659973;-67
2022/12/12 08:55:57;;;;;;;34.33;13.03;;;-2.70;99.90;;;;;;4416587;28;660288;-66
2022/12/12 08:58:45;;;;;;;50.03;19.00;;;-2.70;99.90;;;;;;4413943;28;659477;-66
2022/12/12 09:01:33;;;;;;;48.97;19.60;;;-2.70;99.90;;;;;;4707459;28;659913;-67
2022/12/12 09:04:21;;;;;;;53.13;21.00;;;-2.90;99.90;;;;;;4539516;28;536123;-66
2022/12/12 09:07:08;;;;;;;55.47;19.80;;;-2.90;99.90;;;;;;4403021;28;659600;-66
2022/12/12 09:09:55;;;;;;;44.43;18.80;;;-2.90;99.90;;;;;;4398884;28;659714;-67
2022/12/12 09:12:42;;;;;;;36.17;15.13;;;-2.90;99.90;;;;;;4414035;28;661098;-66
2022/12/12 09:15:29;;;;;;;51.13;19.33;;;-2.80;99.90;;;;;;4409205;28;660029;-66
2022/12/12 09:18:18;;;;;;;48.37;19.00;;;-2.80;99.90;;;;;;4386071;28;661375;-67
2022/12/12 09:21:05;;;;;;;44.83;17.57;;;-2.80;99.90;;;;;;4386606;28;660262;-67
2022/12/12 09:23:53;;;;;;;51.40;18.73;;;-2.70;99.90;;;;;;4407346;28;660111;-66
2022/12/12 09:26:40;;;;;;;42.10;16.97;;;-2.60;99.90;;;;;;4399639;28;659867;-66
2022/12/12 09:29:27;;;;;;;47.05;19.40;;;-2.60;99.90;;;;;;4414095;28;661218;-67
2022/12/12 09:32:14;;;;;;;46.03;18.30;;;-2.60;99.90;;;;;;4404402;28;659632;-66
2022/12/12 09:35:03;;;;;;;43.63;17.47;;;-2.60;99.90;;;;;;4391627;28;660028;-66
2022/12/12 09:37:50;;;;;;;50.25;19.10;;;-2.60;99.90;;;;;;4394083;28;659467;-67
2022/12/12 09:40:40;;;;;;;55.37;20.13;;;-2.60;99.90;;;;;;4413263;28;660366;-66
2022/12/12 09:43:28;;;;;;;38.43;15.10;;;-2.70;99.90;;;;;;4386604;28;661277;-66
2022/12/12 09:46:27;;;;;;;37.87;15.63;;;-2.40;99.90;;;;;;4386974;28;659941;-66
2022/12/12 09:49:17;;;;;;;27.77;9.77;;;-2.50;99.90;;;;;;4403090;28;659805;-66
2022/12/12 09:52:06;;;;;;;33.77;13.07;;;-2.40;99.90;;;;;;4407555;28;659219;-66
2022/12/12 09:54:54;;;;;;;47.23;17.30;;;-2.60;99.90;;;;;;4391022;28;659993;-66
2022/12/12 09:57:42;;;;;;;47.20;16.83;;;-2.70;99.90;;;;;;4391924;28;659969;-67
2022/12/12 10:00:31;;;;;;;42.33;15.97;;;-2.30;99.90;;;;;;4407634;28;659833;-67
2022/12/12 10:03:26;;;;;;;33.37;12.87;;;-2.30;99.90;;;;;;4412836;28;660828;-67
2022/12/12 10:06:13;;;;;;;44.80;19.17;;;-2.50;99.90;;;;;;4385222;28;659705;-67
2022/12/12 10:09:16;;;;;;;52.50;19.92;;;-2.50;99.90;;;;;;4392934;28;659907;-67
2022/12/12 10:12:04;;;;;;;33.17;12.32;;;-2.40;99.90;;;;;;4380931;28;659904;-65
2022/12/12 10:14:52;;;;;;;43.53;17.87;;;-2.30;99.90;;;;;;4389306;28;659622;-66
2022/12/12 10:17:40;;;;;;;47.77;17.90;;;-2.30;99.90;;;;;;4410685;28;659451;-66
2022/12/12 10:20:28;;;;;;;48.80;18.73;;;-2.40;99.90;;;;;;4386074;28;660173;-66
2022/12/12 10:23:19;;;;;;;41.60;16.70;;;-2.30;99.90;;;;;;4395271;28;659657;-66
2022/12/12 10:26:10;;;;;;;40.60;17.00;;;-2.40;99.90;;;;;;4391482;28;659983;-66
2022/12/12 10:29:05;;;;;;;36.53;14.60;;;-2.40;99.90;;;;;;4391384;28;660938;-66
2022/12/12 10:31:54;;;;;;;44.10;17.17;;;-2.30;99.90;;;;;;4367734;28;660447;-66
2022/12/12 10:34:48;;;;;;;36.13;13.47;;;-2.40;99.90;;;;;;4385004;28;660471;-67
2022/12/12 10:37:41;;;;;;;58.97;20.67;;;-2.40;99.90;;;;;;4367253;28;660913;-66
2022/12/12 10:40:38;;;;;;;49.20;20.13;;;-2.60;99.90;;;;;;4388230;28;660480;-66
2022/12/12 10:43:29;;;;;;;43.43;18.33;;;-2.50;99.90;;;;;;4367786;28;659654;-66
2022/12/12 10:46:20;;;;;;;44.97;17.83;;;-2.40;99.90;;;;;;4394485;28;659513;-67
2022/12/12 10:49:13;;;;;;;45.47;17.97;;;-2.30;99.90;;;;;;4388849;28;660713;-66
2022/12/12 10:52:02;;;;;;;51.80;20.60;;;-2.30;99.90;;;;;;4371415;28;660501;-67
2022/12/12 10:54:51;;;;;;;41.10;15.50;;;-2.30;99.90;;;;;;4409681;28;659214;-66
2022/12/12 10:57:38;;;;;;;50.37;18.93;;;-2.30;99.90;;;;;;4391106;28;660714;-66
2022/12/12 11:00:28;;;;;;;46.43;17.87;;;-2.40;99.90;;;;;;4467553;28;659872;-66
2022/12/12 11:03:25;;;;;;;51.58;17.92;;;-2.30;99.90;;;;;;4791172;28;536278;-67
2022/12/12 11:06:13;;;;;;;48.63;19.57;;;-2.20;99.90;;;;;;4368107;28;660703;-67
2022/12/12 11:09:07;;;;;;;43.37;17.30;;;-2.40;99.90;;;;;;4392295;28;659772;-66
2022/12/12 11:11:58;;;;;;;50.87;17.60;;;-2.40;99.90;;;;;;4393342;28;659759;-66
2022/12/12 11:14:47;;;;;;;49.43;18.03;;;-2.50;99.90;;;;;;4372083;28;659843;-66
2022/12/12 11:17:35;;;;;;;46.80;19.43;;;-2.40;99.90;;;;;;4418120;28;659456;-66
2022/12/12 11:20:23;;;;;;;51.17;16.23;;;-2.30;99.90;;;;;;4392311;28;660884;-66
2022/12/12 11:23:15;;;;;;;51.70;20.00;;;-2.50;99.90;;;;;;4408851;28;659728;-67
2022/12/12 11:26:04;;;;;;;54.20;19.63;;;-2.40;99.90;;;;;;4391547;28;661180;-67
2022/12/12 11:28:53;;;;;;;48.15;18.90;;;-2.30;99.90;;;;;;4392716;28;659492;-66
2022/12/12 11:31:40;;;;;;;49.45;18.40;;;-2.50;99.90;;;;;;4403432;28;659189;-67
2022/12/12 11:34:29;;;;;;;52.57;21.73;;;-2.30;99.90;;;;;;4416069;28;659719;-66
2022/12/12 11:37:16;;;;;;;39.80;15.70;;;-2.40;99.90;;;;;;4395574;28;659921;-67
2022/12/12 11:40:04;;;;;;;47.63;18.60;;;-2.20;99.90;;;;;;4412362;28;659491;-66
2022/12/12 11:42:51;;;;;;;48.43;18.30;;;-2.40;99.90;;;;;;4401448;28;659657;-66
2022/12/12 11:45:38;;;;;;;54.40;20.80;;;-2.20;99.90;;;;;;4410429;28;660920;-66
2022/12/12 11:48:41;;;;;;;52.73;21.13;;;-2.40;99.90;;;;;;4396942;28;659783;-67
2022/12/12 11:51:36;;;;;;;55.13;21.03;;;-2.30;99.90;;;;;;4394778;28;660462;-66
2022/12/12 11:54:29;;;;;;;54.20;21.27;;;-2.20;99.90;;;;;;4413371;28;660447;-67
2022/12/12 11:57:23;;;;;;;27.27;12.23;;;-2.10;99.90;;;;;;4395514;28;659971;-66
2022/12/12 12:00:13;;;;;;;55.27;20.30;;;-1.90;99.90;;;;;;4371261;28;659657;-67
2022/12/12 12:03:16;;;;;;;38.97;14.57;;;-2.00;99.90;;;;;;4406565;28;659339;-66
2022/12/12 12:06:26;;;;;;;46.07;17.03;;;-2.00;99.90;;;;;;4395419;28;659809;-66
2022/12/12 12:09:21;;;;;;;48.67;18.40;;;-2.20;99.90;;;;;;4391197;28;659585;-67
2022/12/12 12:12:11;;;;;;;29.90;12.63;;;-2.20;99.90;;;;;;4390073;28;660339;-66
2022/12/12 12:15:04;;;;;;;57.13;19.57;;;-2.30;99.90;;;;;;4386529;28;659899;-66
2022/12/12 12:17:58;;;;;;;43.85;15.15;;;-2.40;99.90;;;;;;4394209;28;659603;-66
2022/12/12 12:21:09;;;;;;;52.43;20.37;;;-2.30;99.90;;;;;;4369493;28;659704;-66
2022/12/12 12:24:18;;;;;;;47.30;18.07;;;-2.30;99.90;;;;;;4394281;28;659712;-67
2022/12/12 12:27:08;;;;;;;48.43;19.47;;;-2.30;99.90;;;;;;4372259;28;659832;-66
2022/12/12 12:30:18;;;;;;;42.90;16.73;;;-2.30;99.90;;;;;;4391003;28;659780;-66
2022/12/12 12:33:32;;;;;;;36.28;14.20;;;-2.40;99.90;;;;;;4386622;28;659540;-67
2022/12/12 12:36:22;;;;;;;37.15;15.18;;;-2.40;99.90;;;;;;4385499;28;659869;-65
2022/12/12 12:39:15;;;;;;;44.83;19.90;;;-2.40;99.90;;;;;;4392758;28;659760;-65
2022/12/12 12:42:11;;;;;;;26.17;11.90;;;-2.40;99.90;;;;;;4366467;28;662422;-66
2022/12/12 12:45:03;;;;;;;23.50;10.03;;;-2.40;99.90;;;;;;4384272;28;659796;-65
2022/12/12 12:47:52;;;;;;;53.30;20.13;;;-2.30;99.90;;;;;;4370104;28;659468;-66
2022/12/12 12:50:41;;;;;;;49.27;18.20;;;-2.40;99.90;;;;;;4407819;28;659869;-65
2022/12/12 12:53:31;;;;;;;46.47;19.17;;;-2.40;99.90;;;;;;4384657;28;659874;-65
2022/12/12 12:56:22;;;;;;;46.90;18.20;;;-2.50;99.90;;;;;;4389484;28;661069;-66
2022/12/12 12:59:13;;;;;;;38.17;16.03;;;-2.40;99.90;;;;;;4386636;28;660131;-66
2022/12/12 13:02:02;;;;;;;36.27;14.13;;;-2.30;99.90;;;;;;4806045;28;659631;-65
2022/12/12 13:04:53;;;;;;;33.37;12.20;;;-2.20;99.90;;;;;;4427741;28;658983;-67
2022/12/12 13:07:42;;;;;;;39.17;17.00;;;-2.20;99.90;;;;;;4387458;28;659465;-66
2022/12/12 13:10:31;;;;;;;46.83;16.70;;;-2.20;99.90;;;;;;4405074;28;659979;-66
2022/12/12 13:13:21;;;;;;;44.43;17.33;;;-2.30;99.90;;;;;;4411867;28;660557;-65
2022/12/12 13:16:11;;;;;;;49.30;18.93;;;-2.30;99.90;;;;;;4391028;28;659487;-65
2022/12/12 13:19:02;;;;;;;35.77;14.80;;;-2.30;99.90;;;;;;4384506;28;660312;-65
2022/12/12 13:21:52;;;;;;;43.97;18.40;;;-2.30;99.90;;;;;;4388111;28;660313;-65
2022/12/12 13:24:41;;;;;;;48.30;19.23;;;-2.10;99.90;;;;;;4381620;28;659617;-65
2022/12/12 13:27:30;;;;;;;24.47;11.70;;;-2.30;99.90;;;;;;4389209;28;660158;-65
2022/12/12 13:30:21;;;;;;;40.63;16.83;;;-2.50;99.90;;;;;;4386875;28;660164;-66
2022/12/12 13:33:15;;;;;;;50.20;20.60;;;-2.40;99.90;;;;;;4387608;28;660868;-65
2022/12/12 13:36:08;;;;;;;47.27;18.10;;;-2.40;99.90;;;;;;4385845;28;660260;-65
2022/12/12 13:38:56;;;;;;;52.67;21.00;;;-2.50;99.90;;;;;;4387490;28;660462;-65
2022/12/12 13:42:02;;;;;;;49.10;19.43;;;-2.50;99.90;;;;;;4405450;28;659864;-65
2022/12/12 13:44:49;;;;;;;55.40;20.53;;;-2.40;99.90;;;;;;4390090;28;659513;-64
2022/12/12 13:47:58;;;;;;;50.70;18.43;;;-2.40;99.90;;;;;;4384112;28;659902;-64
2022/12/12 13:50:47;;;;;;;47.70;16.83;;;-2.40;99.90;;;;;;4366623;28;660097;-65
2022/12/12 13:53:34;;;;;;;55.40;21.67;;;-2.50;99.90;;;;;;4405058;28;660145;-64
2022/12/12 13:56:34;;;;;;;35.43;13.87;;;-2.50;99.90;;;;;;4386616;28;660455;-64
2022/12/12 13:59:30;;;;;;;43.70;16.70;;;-2.40;99.90;;;;;;4359599;28;660164;-64
2022/12/12 14:02:24;;;;;;;39.00;15.43;;;-2.40;99.90;;;;;;4366897;28;660739;-65
2022/12/12 14:05:12;;;;;;;51.47;20.33;;;-2.40;99.90;;;;;;4387087;28;659849;-65
2022/12/12 14:08:06;;;;;;;45.93;19.70;;;-2.40;99.90;;;;;;4409331;28;659477;-64
2022/12/12 14:10:56;;;;;;;38.30;13.37;;;-2.50;99.90;;;;;;4384265;28;660049;-64
2022/12/12 14:13:46;;;;;;;60.00;23.30;;;-2.50;99.90;;;;;;4388966;28;660407;-63
2022/12/12 14:16:33;;;;;;;55.73;21.27;;;-2.50;99.90;;;;;;4386991;28;660097;-64
2022/12/12 14:19:29;;;;;;;49.37;20.53;;;-2.50;99.90;;;;;;4389954;28;660801;-65
2022/12/12 14:22:26;;;;;;;46.07;16.87;;;-2.60;99.90;;;;;;4392835;28;660588;-65